Time;durP1;ratioP1;P1;durP2;ratioP2;P2;SDS_P1;SDS_P2;PMS_P1;PMS_P2;Temp;Humidity;BMP_temperature;BMP_pressure;BME280_temperature;BME280_humidity;BME280_pressure;Samples;Min_cycle;Max_cycle;Signal;HPM_P1;HPM_P2
2023/02/04 00:00:38;;;;;;;2.67;2.15;;;6.70;99.90;;;;;;4907988;28;20225;-77
2023/02/04 00:03:05;;;;;;;2.72;2.53;;;6.60;99.90;;;;;;4925360;28;20218;-76
2023/02/04 00:05:36;;;;;;;6.30;4.88;;;6.60;99.90;;;;;;4942208;28;20245;-76
2023/02/04 00:08:04;;;;;;;9.63;5.70;;;6.60;99.90;;;;;;4905238;28;20309;-76
2023/02/04 00:10:31;;;;;;;4.82;2.65;;;6.60;99.90;;;;;;4895366;28;20234;-79
2023/02/04 00:13:02;;;;;;;3.42;2.92;;;6.50;99.90;;;;;;4895464;28;20250;-77
2023/02/04 00:15:29;;;;;;;3.80;2.03;;;6.50;99.90;;;;;;4894934;28;20234;-79
2023/02/04 00:17:56;;;;;;;3.05;2.75;;;6.50;99.90;;;;;;4895781;28;20236;-80
2023/02/04 00:20:23;;;;;;;3.45;2.47;;;6.40;99.90;;;;;;4895865;28;20243;-79
2023/02/04 00:22:51;;;;;;;2.50;2.30;;;6.40;99.90;;;;;;4894496;28;20257;-78
2023/02/04 00:25:18;;;;;;;3.20;2.30;;;6.40;99.90;;;;;;4895374;28;20223;-76
2023/02/04 00:27:45;;;;;;;1.70;1.60;;;6.40;99.90;;;;;;4895437;28;20317;-75
2023/02/04 00:30:15;;;;;;;2.70;2.50;;;6.40;99.90;;;;;;4895412;29;20226;-79
2023/02/04 00:32:43;;;;;;;2.45;1.77;;;6.40;99.90;;;;;;4894630;28;20234;-77
2023/02/04 00:35:10;;;;;;;2.22;2.03;;;6.40;99.90;;;;;;4895755;28;20234;-78
2023/02/04 00:37:37;;;;;;;2.72;2.00;;;6.30;99.90;;;;;;4893490;28;20226;-77
2023/02/04 00:40:05;;;;;;;1.75;1.50;;;6.30;99.90;;;;;;4895993;28;20724;-75
2023/02/04 00:42:32;;;;;;;1.70;1.30;;;6.20;99.90;;;;;;4893410;28;20244;-79
2023/02/04 00:44:59;;;;;;;1.70;1.60;;;6.20;99.90;;;;;;4895642;28;20226;-77
2023/02/04 00:47:27;;;;;;;2.33;2.13;;;6.20;99.90;;;;;;4895373;29;20246;-78
2023/02/04 00:49:54;;;;;;;2.67;1.48;;;6.10;99.90;;;;;;4896171;28;20241;-78
2023/02/04 00:52:21;;;;;;;2.50;2.05;;;6.10;99.90;;;;;;4898615;28;20280;-78
2023/02/04 00:54:48;;;;;;;1.88;1.27;;;6.10;99.90;;;;;;4897908;28;20245;-76
2023/02/04 00:57:15;;;;;;;2.05;1.60;;;6.00;99.90;;;;;;4897959;29;20222;-76
2023/02/04 00:59:42;;;;;;;1.42;1.33;;;6.00;99.90;;;;;;4897553;28;20309;-76
2023/02/04 01:02:09;;;;;;;2.38;1.80;;;5.90;99.90;;;;;;4899030;28;20226;-79
2023/02/04 01:04:38;;;;;;;2.22;1.50;;;5.90;99.90;;;;;;4897680;28;20549;-78
2023/02/04 01:07:05;;;;;;;2.00;1.30;;;5.80;99.90;;;;;;4898794;28;20720;-79
2023/02/04 01:09:32;;;;;;;2.00;1.20;;;5.70;99.90;;;;;;4898544;28;20292;-78
2023/02/04 01:12:03;;;;;;;1.60;1.30;;;5.80;99.90;;;;;;4898902;28;20983;-76
2023/02/04 01:14:30;;;;;;;2.40;1.50;;;5.80;99.90;;;;;;4901278;28;20242;-76
2023/02/04 01:17:00;;;;;;;3.08;1.40;;;5.80;99.90;;;;;;4898417;28;20226;-76
2023/02/04 01:19:27;;;;;;;1.55;1.45;;;5.70;99.90;;;;;;4901619;28;20558;-78
2023/02/04 01:21:55;;;;;;;1.45;1.30;;;5.70;99.90;;;;;;4898465;28;20272;-78
2023/02/04 01:24:22;;;;;;;2.58;1.48;;;5.80;99.90;;;;;;4896883;29;20293;-78
2023/02/04 01:26:49;;;;;;;1.80;1.70;;;5.70;99.90;;;;;;4898592;28;20230;-78
2023/02/04 01:29:16;;;;;;;1.25;1.10;;;5.70;99.90;;;;;;4898396;28;20230;-76
2023/02/04 01:31:44;;;;;;;1.92;1.40;;;5.80;99.90;;;;;;4897182;28;20246;-78
2023/02/04 01:34:11;;;;;;;1.50;1.40;;;5.70;99.90;;;;;;4898062;28;20249;-76
2023/02/04 01:36:38;;;;;;;2.88;1.52;;;5.80;99.90;;;;;;4897331;28;20621;-77
2023/02/04 01:39:06;;;;;;;4.10;2.20;;;5.70;99.90;;;;;;4897803;29;20305;-78
2023/02/04 01:41:33;;;;;;;3.25;1.75;;;5.70;99.90;;;;;;4897853;28;20684;-76
2023/02/04 01:44:01;;;;;;;2.83;1.75;;;5.60;99.90;;;;;;4897198;28;20249;-76
2023/02/04 01:46:28;;;;;;;2.83;2.15;;;5.60;99.90;;;;;;4897427;29;20548;-76
2023/02/04 01:48:55;;;;;;;2.70;1.98;;;5.60;99.90;;;;;;4895623;28;20548;-76
2023/02/04 01:51:27;;;;;;;2.45;1.48;;;5.60;99.90;;;;;;4897512;29;20246;-76
2023/02/04 01:53:54;;;;;;;2.05;1.20;;;5.60;99.90;;;;;;4896842;29;20245;-76
2023/02/04 01:56:25;;;;;;;1.05;0.95;;;5.50;99.90;;;;;;4897824;29;20226;-77
2023/02/04 01:58:54;;;;;;;1.40;1.30;;;5.50;99.90;;;;;;4897068;28;20238;-78
2023/02/04 02:01:35;;;;;;;3.45;1.77;;;5.50;99.90;;;;;;4897162;28;20226;-77
2023/02/04 02:04:03;;;;;;;1.55;1.30;;;5.50;99.90;;;;;;4896586;28;20288;-76
2023/02/04 02:06:30;;;;;;;1.48;1.30;;;5.40;99.90;;;;;;4896753;28;20241;-76
2023/02/04 02:09:00;;;;;;;2.25;1.40;;;5.40;99.90;;;;;;4896517;28;20284;-76
2023/02/04 02:11:29;;;;;;;1.88;1.30;;;5.40;99.90;;;;;;4896872;28;20234;-77
2023/02/04 02:13:56;;;;;;;1.35;1.20;;;5.40;99.90;;;;;;4896787;29;20237;-76
2023/02/04 02:16:23;;;;;;;2.17;1.40;;;5.40;99.90;;;;;;4897511;28;20226;-78
2023/02/04 02:18:53;;;;;;;1.27;1.17;;;5.40;99.90;;;;;;4896856;28;20226;-77
2023/02/04 02:21:29;;;;;;;1.33;0.95;;;5.30;99.90;;;;;;4896740;28;20691;-76
2023/02/04 02:23:59;;;;;;;3.30;2.40;;;5.40;99.90;;;;;;4896111;28;20241;-76
2023/02/04 02:26:28;;;;;;;2.60;1.48;;;5.40;99.90;;;;;;4896815;28;20253;-76
2023/02/04 02:28:55;;;;;;;2.97;1.23;;;5.40;99.90;;;;;;4895636;28;20296;-77
2023/02/04 02:31:23;;;;;;;1.30;1.20;;;5.40;99.90;;;;;;4896390;28;20234;-77
2023/02/04 02:33:59;;;;;;;3.30;1.40;;;5.40;99.90;;;;;;4895533;28;20735;-76
2023/02/04 02:36:26;;;;;;;1.17;1.02;;;5.40;99.90;;;;;;4896664;28;20316;-76
2023/02/04 02:38:54;;;;;;;1.30;1.20;;;5.40;99.90;;;;;;4896738;28;20230;-76
2023/02/04 02:41:23;;;;;;;2.00;1.40;;;5.30;99.90;;;;;;4896359;29;20234;-76
2023/02/04 02:43:50;;;;;;;2.10;1.30;;;5.40;99.90;;;;;;4895793;29;20230;-76
2023/02/04 02:46:21;;;;;;;1.75;1.25;;;5.30;99.90;;;;;;4896513;29;20238;-76
2023/02/04 02:48:48;;;;;;;3.83;1.42;;;5.30;99.90;;;;;;4895117;28;20241;-77
2023/02/04 02:51:15;;;;;;;1.38;1.15;;;5.30;99.90;;;;;;4896608;28;20238;-78
2023/02/04 02:53:42;;;;;;;2.10;1.60;;;5.30;99.90;;;;;;4896719;28;20592;-78
2023/02/04 02:56:11;;;;;;;2.17;1.60;;;5.30;99.90;;;;;;4895907;29;20236;-76
2023/02/04 02:58:40;;;;;;;1.63;1.00;;;5.30;99.90;;;;;;4896378;28;20281;-76
2023/02/04 03:01:09;;;;;;;2.00;1.40;;;5.30;99.90;;;;;;4895783;29;20260;-77
2023/02/04 03:03:38;;;;;;;2.38;1.48;;;5.30;99.90;;;;;;4896714;29;20234;-76
2023/02/04 03:06:09;;;;;;;2.33;1.40;;;5.40;99.90;;;;;;4895895;28;20231;-76
2023/02/04 03:08:36;;;;;;;1.70;1.60;;;5.30;99.90;;;;;;4896229;28;20237;-76
2023/02/04 03:11:03;;;;;;;2.10;1.75;;;5.30;99.90;;;;;;4895910;28;20245;-78
2023/02/04 03:13:32;;;;;;;1.38;1.20;;;5.30;99.90;;;;;;4895780;29;20252;-79
2023/02/04 03:16:01;;;;;;;1.30;1.20;;;5.30;99.90;;;;;;4886073;28;20241;-78
2023/02/04 03:18:29;;;;;;;1.88;1.40;;;5.30;99.90;;;;;;4896104;28;20238;-79
2023/02/04 03:20:57;;;;;;;1.65;1.55;;;5.20;99.90;;;;;;4894928;28;20296;-77
2023/02/04 03:23:26;;;;;;;1.42;1.25;;;5.20;99.90;;;;;;4896381;28;20695;-77
2023/02/04 03:25:53;;;;;;;2.30;1.40;;;5.20;99.90;;;;;;4895994;28;20226;-77
2023/02/04 03:28:23;;;;;;;3.65;1.50;;;5.20;99.90;;;;;;4896499;28;20234;-79
2023/02/04 03:30:53;;;;;;;1.35;1.25;;;5.10;99.90;;;;;;4896103;29;20244;-79
2023/02/04 03:33:22;;;;;;;2.17;1.35;;;5.20;99.90;;;;;;4895671;28;20272;-79
2023/02/04 03:35:50;;;;;;;2.53;1.60;;;5.20;99.90;;;;;;4896187;29;20241;-77
2023/02/04 03:38:18;;;;;;;1.85;1.30;;;5.20;99.90;;;;;;4895220;28;20238;-77
2023/02/04 03:40:45;;;;;;;1.90;1.50;;;5.20;99.90;;;;;;4895868;28;20244;-77
2023/02/04 03:43:12;;;;;;;2.97;1.55;;;5.20;99.90;;;;;;4895383;28;20227;-75
2023/02/04 03:45:39;;;;;;;2.60;1.70;;;5.10;99.90;;;;;;4895605;28;20234;-79
2023/02/04 03:48:07;;;;;;;1.83;1.38;;;5.10;99.90;;;;;;4895107;29;20567;-78
2023/02/04 03:50:36;;;;;;;1.35;1.20;;;5.10;99.90;;;;;;4896140;28;20265;-77
2023/02/04 03:53:05;;;;;;;1.75;1.50;;;5.20;99.90;;;;;;4894910;28;20230;-77
2023/02/04 03:55:35;;;;;;;1.85;1.20;;;5.20;99.90;;;;;;4896063;28;20238;-78
2023/02/04 03:58:02;;;;;;;1.95;1.20;;;5.10;99.90;;;;;;4895492;28;20280;-78
2023/02/04 04:00:30;;;;;;;2.88;1.17;;;5.10;99.90;;;;;;4895738;29;20234;-76
2023/02/04 04:02:59;;;;;;;2.50;1.40;;;5.10;99.90;;;;;;4895420;28;20246;-76
2023/02/04 04:05:27;;;;;;;2.30;0.95;;;5.10;99.90;;;;;;4895175;28;20265;-76
2023/02/04 04:07:55;;;;;;;2.38;1.20;;;5.20;99.90;;;;;;4895316;29;20245;-78
2023/02/04 04:10:22;;;;;;;1.67;1.15;;;5.20;99.90;;;;;;4895499;28;20246;-78
2023/02/04 04:12:52;;;;;;;1.80;1.17;;;5.20;99.90;;;;;;4895300;28;20229;-78
2023/02/04 04:15:19;;;;;;;1.67;1.42;;;5.20;99.90;;;;;;4894704;28;20239;-78
2023/02/04 04:17:46;;;;;;;1.98;1.05;;;5.20;99.90;;;;;;4895221;28;20284;-76
2023/02/04 04:20:13;;;;;;;1.52;1.10;;;5.20;99.90;;;;;;4894787;28;20261;-76
2023/02/04 04:22:40;;;;;;;1.73;1.00;;;5.20;99.90;;;;;;4895434;28;20234;-76
2023/02/04 04:25:09;;;;;;;1.65;1.40;;;5.20;99.90;;;;;;4893987;28;20226;-77
2023/02/04 04:27:37;;;;;;;4.22;1.20;;;5.20;99.90;;;;;;4894559;29;20317;-76
2023/02/04 04:30:04;;;;;;;2.90;1.27;;;5.20;99.90;;;;;;4895419;28;20238;-76
2023/02/04 04:32:31;;;;;;;4.03;1.98;;;5.20;99.90;;;;;;4926434;28;20245;-78
2023/02/04 04:34:58;;;;;;;2.60;1.40;;;5.20;99.90;;;;;;4895384;28;20252;-78
2023/02/04 04:37:25;;;;;;;1.48;1.20;;;5.30;99.90;;;;;;4894239;29;20286;-78
2023/02/04 04:39:53;;;;;;;2.33;1.30;;;5.20;99.90;;;;;;4895961;28;20230;-76
2023/02/04 04:42:21;;;;;;;2.63;1.63;;;5.20;99.90;;;;;;4894448;28;20226;-76
2023/02/04 04:44:48;;;;;;;1.40;1.30;;;5.20;99.90;;;;;;4894608;29;20605;-76
2023/02/04 04:47:15;;;;;;;2.10;1.20;;;5.20;99.90;;;;;;4894583;29;20233;-76
2023/02/04 04:49:44;;;;;;;1.45;1.23;;;5.20;99.90;;;;;;4895168;28;20234;-76
2023/02/04 04:52:11;;;;;;;2.05;1.10;;;5.20;99.90;;;;;;4885922;28;20337;-79
2023/02/04 04:54:38;;;;;;;2.42;1.30;;;5.20;99.90;;;;;;4894715;28;20289;-78
2023/02/04 04:57:05;;;;;;;2.95;1.52;;;5.20;99.90;;;;;;4894368;29;20284;-78
2023/02/04 04:59:34;;;;;;;1.60;1.25;;;5.20;99.90;;;;;;4894675;28;20238;-78
2023/02/04 05:02:01;;;;;;;4.82;1.48;;;5.20;99.90;;;;;;4895835;28;20679;-78
2023/02/04 05:04:27;;;;;;;1.35;1.20;;;5.10;99.90;;;;;;4894719;29;20242;-77
2023/02/04 05:06:54;;;;;;;2.00;1.10;;;5.10;99.90;;;;;;4894961;28;20718;-78
2023/02/04 05:09:22;;;;;;;2.22;1.23;;;5.10;99.90;;;;;;4894506;29;20226;-76
2023/02/04 05:11:49;;;;;;;3.75;1.70;;;5.10;99.90;;;;;;4895084;28;20296;-77
2023/02/04 05:14:16;;;;;;;2.88;1.63;;;5.10;99.90;;;;;;4894265;28;20237;-78
2023/02/04 05:16:44;;;;;;;2.58;1.50;;;5.10;99.90;;;;;;4894748;29;20230;-79
2023/02/04 05:19:11;;;;;;;1.75;1.40;;;5.00;99.90;;;;;;4894985;28;20277;-78
2023/02/04 05:21:38;;;;;;;1.85;1.20;;;5.00;99.90;;;;;;4894711;29;20246;-78
2023/02/04 05:24:06;;;;;;;1.70;1.27;;;5.00;99.90;;;;;;4894541;28;20254;-76
2023/02/04 05:26:33;;;;;;;3.97;2.05;;;5.00;99.90;;;;;;4894013;28;20766;-78
2023/02/04 05:29:00;;;;;;;1.30;1.10;;;5.00;99.90;;;;;;4894904;28;20226;-78
2023/02/04 05:31:28;;;;;;;2.05;1.00;;;4.90;99.90;;;;;;4894164;29;20285;-77
2023/02/04 05:33:56;;;;;;;2.60;1.80;;;4.90;99.90;;;;;;4894880;28;20249;-78
2023/02/04 05:36:23;;;;;;;4.47;1.35;;;4.90;99.90;;;;;;4894868;28;20570;-76
2023/02/04 05:38:50;;;;;;;2.85;1.70;;;4.90;99.90;;;;;;4897778;28;20742;-78
2023/02/04 05:41:20;;;;;;;2.13;1.25;;;4.90;99.90;;;;;;4897742;28;20251;-76
2023/02/04 05:43:47;;;;;;;1.85;1.42;;;4.90;99.90;;;;;;4897281;28;20308;-78
2023/02/04 05:46:14;;;;;;;3.38;1.45;;;4.90;99.90;;;;;;4897863;28;20245;-78
2023/02/04 05:48:41;;;;;;;1.58;1.48;;;4.90;99.90;;;;;;4897412;28;20265;-76
2023/02/04 05:51:10;;;;;;;2.08;1.23;;;4.90;99.90;;;;;;4897532;28;20268;-75
2023/02/04 05:53:37;;;;;;;3.30;1.58;;;4.90;99.90;;;;;;4896505;28;20230;-76
2023/02/04 05:56:04;;;;;;;4.75;1.65;;;4.80;99.90;;;;;;4897815;28;20226;-76
2023/02/04 05:58:32;;;;;;;2.55;1.80;;;4.80;99.90;;;;;;4897021;28;20226;-78
2023/02/04 06:01:00;;;;;;;2.88;1.52;;;4.80;99.90;;;;;;4897110;28;20316;-78
2023/02/04 06:03:27;;;;;;;1.20;1.10;;;4.80;99.90;;;;;;4896836;28;20264;-78
2023/02/04 06:05:54;;;;;;;3.22;1.38;;;4.80;99.90;;;;;;4897481;28;20230;-76
2023/02/04 06:08:23;;;;;;;4.35;1.55;;;4.80;99.90;;;;;;4897174;28;20280;-75
2023/02/04 06:10:50;;;;;;;2.20;1.40;;;4.80;99.90;;;;;;4896965;29;20337;-75
2023/02/04 06:13:17;;;;;;;3.30;1.88;;;4.80;99.90;;;;;;4897106;28;20226;-75
2023/02/04 06:15:45;;;;;;;1.73;1.23;;;4.70;99.90;;;;;;4896211;28;20257;-75
2023/02/04 06:18:12;;;;;;;3.72;1.55;;;4.70;99.90;;;;;;4897206;28;20264;-77
2023/02/04 06:20:39;;;;;;;2.10;1.65;;;4.70;99.90;;;;;;4897435;28;20313;-75
2023/02/04 06:23:06;;;;;;;2.20;1.70;;;4.70;99.90;;;;;;4896823;28;20313;-76
2023/02/04 06:25:41;;;;;;;3.25;2.17;;;4.70;99.90;;;;;;4896643;28;20230;-78
2023/02/04 06:28:08;;;;;;;1.63;1.40;;;4.70;99.90;;;;;;4897138;28;20226;-78
2023/02/04 06:30:36;;;;;;;1.58;1.45;;;4.70;99.90;;;;;;4897041;29;20353;-78
2023/02/04 06:33:03;;;;;;;2.45;1.58;;;4.70;99.90;;;;;;4897504;28;20586;-78
2023/02/04 06:35:30;;;;;;;4.75;1.88;;;4.60;99.90;;;;;;4896555;29;20230;-77
2023/02/04 06:37:59;;;;;;;2.60;1.67;;;4.60;99.90;;;;;;4897376;28;20540;-79
2023/02/04 06:40:26;;;;;;;2.47;1.90;;;4.60;99.90;;;;;;4897184;28;20311;-79
2023/02/04 06:42:55;;;;;;;2.63;1.83;;;4.60;99.90;;;;;;4896560;29;20230;-79
2023/02/04 06:45:22;;;;;;;3.17;2.38;;;4.60;99.90;;;;;;4896907;29;20668;-79
2023/02/04 06:47:49;;;;;;;5.68;2.00;;;4.60;99.90;;;;;;4896026;28;20350;-77
2023/02/04 06:50:17;;;;;;;1.88;1.60;;;4.60;99.90;;;;;;4896625;29;20234;-77
2023/02/04 06:52:45;;;;;;;1.90;1.60;;;4.60;99.90;;;;;;4897602;28;20241;-77
2023/02/04 06:55:13;;;;;;;2.38;1.30;;;4.60;99.90;;;;;;4897135;28;20718;-76
2023/02/04 06:57:40;;;;;;;3.05;1.45;;;4.60;99.90;;;;;;4895885;28;20574;-76
2023/02/04 07:00:12;;;;;;;3.30;1.40;;;4.60;99.90;;;;;;4896421;29;20230;-76
2023/02/04 07:02:41;;;;;;;2.28;1.40;;;4.60;99.90;;;;;;4896540;28;20285;-76
2023/02/04 07:05:08;;;;;;;2.45;1.80;;;4.50;99.90;;;;;;4898047;28;20265;-75
2023/02/04 07:07:35;;;;;;;5.35;1.90;;;4.50;99.90;;;;;;4898169;28;20222;-75
2023/02/04 07:10:04;;;;;;;4.88;2.05;;;4.50;99.90;;;;;;4903582;28;20230;-78
2023/02/04 07:12:32;;;;;;;4.75;1.48;;;4.50;99.90;;;;;;4901194;28;20304;-78
2023/02/04 07:14:59;;;;;;;1.90;1.80;;;4.50;99.90;;;;;;4895901;28;20222;-77
2023/02/04 07:17:27;;;;;;;2.10;2.00;;;4.50;99.90;;;;;;4896173;28;20533;-76
2023/02/04 07:19:54;;;;;;;4.65;2.03;;;4.50;99.90;;;;;;4895090;28;20230;-78
2023/02/04 07:22:21;;;;;;;3.40;1.73;;;4.50;99.90;;;;;;4896465;28;20229;-78
2023/02/04 07:24:48;;;;;;;3.70;1.63;;;4.50;99.90;;;;;;4887969;28;20319;-78
2023/02/04 07:27:15;;;;;;;5.90;1.95;;;4.50;99.90;;;;;;4896354;28;20569;-78
2023/02/04 07:29:42;;;;;;;4.75;2.03;;;4.50;99.90;;;;;;4896027;28;20593;-79
2023/02/04 07:32:09;;;;;;;1.75;1.45;;;4.50;99.90;;;;;;4896017;28;20325;-75
2023/02/04 07:34:38;;;;;;;3.20;2.33;;;4.50;99.90;;;;;;4896143;28;20281;-78
2023/02/04 07:37:05;;;;;;;2.00;1.50;;;4.50;99.90;;;;;;4896667;28;20250;-78
2023/02/04 07:39:32;;;;;;;2.10;1.73;;;4.50;99.90;;;;;;4897481;28;20234;-79
2023/02/04 07:41:59;;;;;;;3.47;1.65;;;4.50;99.90;;;;;;4899547;28;20263;-78
2023/02/04 07:44:32;;;;;;;2.40;1.60;;;4.50;99.90;;;;;;4896403;29;20657;-76
2023/02/04 07:46:59;;;;;;;2.00;1.70;;;4.50;99.90;;;;;;4899360;28;20394;-79
2023/02/04 07:49:27;;;;;;;4.18;1.25;;;4.50;99.90;;;;;;4901835;29;20772;-78
2023/02/04 07:51:56;;;;;;;2.15;1.48;;;4.60;99.90;;;;;;4902431;28;20241;-78
2023/02/04 07:54:26;;;;;;;2.20;1.70;;;4.60;99.90;;;;;;4903902;28;20249;-78
2023/02/04 07:56:53;;;;;;;5.32;2.58;;;4.60;99.90;;;;;;4905316;28;20238;-77
2023/02/04 07:59:20;;;;;;;2.50;2.30;;;4.60;99.90;;;;;;4898337;28;20250;-76
2023/02/04 08:01:48;;;;;;;2.38;2.00;;;4.60;99.90;;;;;;4897510;28;20226;-76
2023/02/04 08:04:18;;;;;;;3.22;2.25;;;4.60;99.90;;;;;;4901144;28;20281;-78
2023/02/04 08:06:45;;;;;;;7.20;2.70;;;4.70;99.90;;;;;;4896189;28;20272;-77
2023/02/04 08:09:13;;;;;;;2.35;1.65;;;4.70;99.90;;;;;;4896156;28;20238;-77
2023/02/04 08:11:40;;;;;;;3.70;2.17;;;4.70;99.90;;;;;;4897012;28;20234;-78
2023/02/04 08:14:10;;;;;;;3.17;2.10;;;4.70;99.90;;;;;;4896530;28;20249;-79
2023/02/04 08:16:37;;;;;;;1.80;1.70;;;4.80;99.90;;;;;;4896626;28;20234;-78
2023/02/04 08:19:04;;;;;;;2.17;1.67;;;4.70;99.90;;;;;;4895437;28;20292;-79
2023/02/04 08:21:31;;;;;;;2.05;1.30;;;4.70;99.90;;;;;;4895794;28;20587;-76
2023/02/04 08:23:58;;;;;;;2.45;1.50;;;4.80;99.90;;;;;;4895130;28;20238;-79
2023/02/04 08:26:27;;;;;;;2.75;1.42;;;4.80;99.90;;;;;;4896068;28;20229;-77
2023/02/04 08:28:54;;;;;;;6.20;2.95;;;4.80;99.90;;;;;;4895149;28;20292;-77
2023/02/04 08:31:21;;;;;;;3.75;2.88;;;4.80;99.90;;;;;;4895316;28;20234;-77
2023/02/04 08:33:48;;;;;;;3.65;2.85;;;4.90;99.90;;;;;;4973035;28;20259;-77
2023/02/04 08:36:15;;;;;;;2.95;2.40;;;4.90;99.90;;;;;;4974428;28;20227;-79
2023/02/04 08:38:43;;;;;;;5.55;3.05;;;5.00;99.90;;;;;;4974552;28;20290;-79
2023/02/04 08:41:10;;;;;;;3.65;2.58;;;5.00;99.90;;;;;;4973976;28;20227;-79
2023/02/04 08:43:43;;;;;;;4.75;3.85;;;5.00;99.90;;;;;;4975035;28;20614;-77
2023/02/04 08:46:10;;;;;;;11.13;8.38;;;5.00;99.90;;;;;;4973378;28;20227;-77
2023/02/04 08:48:37;;;;;;;10.85;6.53;;;5.00;99.90;;;;;;4974344;28;20227;-78
2023/02/04 08:51:07;;;;;;;9.95;6.70;;;5.00;99.90;;;;;;4972997;28;20286;-80
2023/02/04 08:53:34;;;;;;;8.18;5.68;;;5.10;99.90;;;;;;4966935;28;20227;-78
2023/02/04 08:56:01;;;;;;;6.25;4.18;;;5.10;99.90;;;;;;4973192;28;20251;-76
2023/02/04 08:58:29;;;;;;;3.83;2.78;;;5.10;99.90;;;;;;4973668;28;20223;-76
2023/02/04 09:00:57;;;;;;;10.10;2.80;;;5.10;99.90;;;;;;4972925;28;20239;-78
2023/02/04 09:03:24;;;;;;;3.97;2.50;;;5.10;99.90;;;;;;4974348;28;20223;-78
2023/02/04 09:05:51;;;;;;;3.10;2.10;;;5.10;99.90;;;;;;4972970;28;20266;-79
2023/02/04 09:08:18;;;;;;;3.75;2.30;;;5.20;99.90;;;;;;4973819;28;20227;-79
2023/02/04 09:10:45;;;;;;;8.70;3.65;;;5.20;99.90;;;;;;4973839;28;20231;-79
2023/02/04 09:13:13;;;;;;;7.10;5.65;;;5.20;99.90;;;;;;4976401;28;20311;-78
2023/02/04 09:15:42;;;;;;;7.43;5.28;;;5.20;99.90;;;;;;4976512;28;20231;-78
2023/02/04 09:18:15;;;;;;;6.50;3.97;;;5.30;99.90;;;;;;4977275;28;20266;-76
2023/02/04 09:20:42;;;;;;;8.65;5.35;;;5.30;99.90;;;;;;4977049;28;20224;-76
2023/02/04 09:23:10;;;;;;;5.15;4.55;;;5.30;99.90;;;;;;4976181;28;20231;-78
2023/02/04 09:25:38;;;;;;;5.15;4.30;;;5.40;99.90;;;;;;4977332;28;20231;-76
2023/02/04 09:28:05;;;;;;;3.45;2.80;;;5.40;99.90;;;;;;4976615;28;20258;-76
2023/02/04 09:30:33;;;;;;;4.32;2.65;;;5.40;99.90;;;;;;4976996;28;20646;-76
2023/02/04 09:33:00;;;;;;;3.65;2.85;;;5.50;99.90;;;;;;4922448;28;20244;-76
2023/02/04 09:35:28;;;;;;;5.82;3.15;;;5.50;99.90;;;;;;4897128;28;20246;-76
2023/02/04 09:37:55;;;;;;;3.33;2.85;;;5.60;99.90;;;;;;4896603;28;20234;-76
2023/02/04 09:40:23;;;;;;;3.72;2.85;;;5.60;99.90;;;;;;4887857;28;20258;-77
2023/02/04 09:43:01;;;;;;;3.50;2.78;;;5.60;99.90;;;;;;4896964;28;20234;-77
2023/02/04 09:45:35;;;;;;;7.45;6.55;;;5.60;99.90;;;;;;4887629;28;20261;-76
2023/02/04 09:48:05;;;;;;;12.30;5.25;;;5.60;99.90;;;;;;4887542;28;20229;-76
2023/02/04 09:50:33;;;;;;;5.47;4.93;;;5.70;99.90;;;;;;4897085;28;20297;-78
2023/02/04 09:53:04;;;;;;;3.80;3.50;;;5.70;99.90;;;;;;4897706;28;20262;-78
2023/02/04 09:55:33;;;;;;;3.83;3.60;;;5.70;99.90;;;;;;4896726;28;20222;-78
2023/02/04 09:58:00;;;;;;;2.30;2.13;;;5.80;99.90;;;;;;4886859;28;20231;-78
2023/02/04 10:00:31;;;;;;;2.20;1.55;;;5.80;99.90;;;;;;4894413;29;20284;-76
2023/02/04 10:03:00;;;;;;;3.20;1.63;;;5.80;99.90;;;;;;4878287;28;20234;-76
2023/02/04 10:05:31;;;;;;;7.07;2.72;;;5.90;99.90;;;;;;4867172;28;20234;-76
2023/02/04 10:08:00;;;;;;;2.20;1.90;;;6.00;99.90;;;;;;4896739;29;20230;-76
2023/02/04 10:10:29;;;;;;;2.65;1.92;;;6.00;99.90;;;;;;4896546;28;20239;-76
2023/02/04 10:13:04;;;;;;;1.83;1.70;;;6.00;99.90;;;;;;4887255;28;20305;-76
2023/02/04 10:15:34;;;;;;;2.33;1.00;;;6.00;99.90;;;;;;4911132;28;20826;-76
2023/02/04 10:18:07;;;;;;;2.97;1.95;;;6.10;99.90;;;;;;4878277;29;20664;-76
2023/02/04 10:20:34;;;;;;;3.72;1.60;;;6.10;99.90;;;;;;4877641;28;20290;-76
2023/02/04 10:23:12;;;;;;;3.90;2.08;;;6.10;99.90;;;;;;4877877;28;20425;-75
2023/02/04 10:25:45;;;;;;;2.20;1.35;;;6.10;99.90;;;;;;4877482;29;20751;-78
2023/02/04 10:28:12;;;;;;;3.95;1.30;;;6.10;99.90;;;;;;4879427;29;20514;-77
2023/02/04 10:30:42;;;;;;;2.03;1.05;;;6.20;99.90;;;;;;4881835;29;20255;-77
2023/02/04 10:33:15;;;;;;;1.98;1.40;;;6.20;99.90;;;;;;4910855;28;20248;-77
2023/02/04 10:35:47;;;;;;;1.30;1.20;;;6.30;99.90;;;;;;4914719;28;20291;-78
2023/02/04 10:38:15;;;;;;;2.97;1.77;;;6.30;99.90;;;;;;4914546;28;20229;-77
2023/02/04 10:40:42;;;;;;;3.15;1.42;;;6.40;99.90;;;;;;4915977;28;20233;-78
2023/02/04 10:43:11;;;;;;;3.45;1.00;;;6.30;99.90;;;;;;4916632;28;20641;-75
2023/02/04 10:45:44;;;;;;;2.67;1.33;;;6.30;99.90;;;;;;4914945;28;20325;-76
2023/02/04 10:48:16;;;;;;;2.45;1.42;;;6.40;99.90;;;;;;4915450;28;20316;-75
2023/02/04 10:50:45;;;;;;;8.65;2.00;;;6.40;99.90;;;;;;4916096;28;20579;-78
2023/02/04 10:56:02;;;;;;;1.40;1.30;;;6.40;99.90;;;;;;4917744;28;20236;-78
2023/02/04 10:58:31;;;;;;;1.67;1.10;;;6.40;99.90;;;;;;4915909;28;20291;-78
2023/02/04 11:00:59;;;;;;;1.10;1.00;;;6.50;99.90;;;;;;4916885;28;20698;-79
2023/02/04 11:03:30;;;;;;;1.55;1.10;;;6.40;99.90;;;;;;4914603;28;20234;-77
2023/02/04 11:05:59;;;;;;;1.35;1.10;;;6.40;99.90;;;;;;4929230;28;20674;-77
2023/02/04 11:08:33;;;;;;;1.50;1.00;;;6.40;99.90;;;;;;4934557;28;20577;-77
2023/02/04 11:11:04;;;;;;;1.50;1.40;;;6.40;99.90;;;;;;4935121;28;20549;-76
2023/02/04 11:13:40;;;;;;;1.98;1.40;;;6.50;99.90;;;;;;4934330;28;20225;-76
2023/02/04 11:16:11;;;;;;;3.00;2.75;;;6.50;99.90;;;;;;4933753;28;20564;-76
2023/02/04 11:18:48;;;;;;;3.63;1.70;;;6.50;99.90;;;;;;4934162;28;20263;-78
2023/02/04 11:21:22;;;;;;;2.88;1.80;;;6.60;99.90;;;;;;4934908;28;20239;-78
2023/02/04 11:23:51;;;;;;;2.20;1.55;;;6.60;99.90;;;;;;4934712;28;20228;-78
2023/02/04 11:26:31;;;;;;;1.80;1.38;;;6.50;99.90;;;;;;4934967;28;20235;-76
2023/02/04 11:29:33;;;;;;;1.50;1.40;;;6.50;99.90;;;;;;4934249;28;20290;-77
2023/02/04 11:32:03;;;;;;;1.20;1.10;;;6.50;99.90;;;;;;4930018;28;20286;-77
2023/02/04 11:34:48;;;;;;;2.75;1.10;;;6.60;99.90;;;;;;4933783;28;20224;-77
2023/02/04 11:37:34;;;;;;;2.38;1.10;;;6.60;99.90;;;;;;4932424;28;20324;-77
2023/02/04 11:40:20;;;;;;;2.85;1.30;;;6.60;99.90;;;;;;4933748;28;20229;-77
2023/02/04 11:42:50;;;;;;;1.70;1.30;;;6.60;99.90;;;;;;4934260;28;20233;-79
2023/02/04 11:45:21;;;;;;;2.15;1.25;;;6.70;99.90;;;;;;4934140;28;20550;-78
2023/02/04 11:47:48;;;;;;;2.33;1.30;;;6.80;99.90;;;;;;4935099;28;20236;-79
2023/02/04 11:50:21;;;;;;;3.17;1.83;;;6.80;99.90;;;;;;4934064;28;20228;-78
2023/02/04 11:52:48;;;;;;;2.20;1.67;;;6.80;99.90;;;;;;4933924;28;20229;-79
2023/02/04 11:55:19;;;;;;;2.28;1.27;;;6.80;99.90;;;;;;4933954;28;20607;-79
2023/02/04 11:57:51;;;;;;;1.55;1.17;;;6.80;99.90;;;;;;4933944;28;20260;-79
2023/02/04 12:00:23;;;;;;;11.20;6.60;;;6.80;99.90;;;;;;4933521;28;20591;-76
2023/02/04 12:02:58;;;;;;;2.17;1.98;;;6.90;99.90;;;;;;4934115;28;20248;-76
2023/02/04 12:05:37;;;;;;;1.50;1.33;;;6.90;99.90;;;;;;4924788;28;20281;-77
2023/02/04 12:08:14;;;;;;;2.50;1.30;;;6.90;99.90;;;;;;4934401;28;20224;-79
2023/02/04 12:10:50;;;;;;;1.20;1.10;;;6.90;99.90;;;;;;4934768;28;20248;-78
2023/02/04 12:13:19;;;;;;;1.02;1.00;;;6.90;99.90;;;;;;4933872;28;20228;-76
2023/02/04 12:15:55;;;;;;;2.45;1.88;;;6.90;99.90;;;;;;4937563;28;20233;-78
2023/02/04 12:18:49;;;;;;;1.90;1.30;;;7.00;99.90;;;;;;4919718;28;20541;-77
2023/02/04 12:21:24;;;;;;;1.67;1.02;;;6.90;99.90;;;;;;4917216;28;20288;-79
2023/02/04 12:23:57;;;;;;;1.00;0.90;;;6.90;99.90;;;;;;4935004;28;20220;-79
2023/02/04 12:26:28;;;;;;;2.00;1.40;;;6.90;99.90;;;;;;4936755;28;20271;-78
2023/02/04 12:29:00;;;;;;;2.50;2.25;;;6.90;99.90;;;;;;4938024;28;20619;-78
2023/02/04 12:31:32;;;;;;;4.22;1.80;;;6.90;99.90;;;;;;4937071;28;20371;-79
2023/02/04 12:34:03;;;;;;;2.00;1.60;;;6.90;99.90;;;;;;4936408;28;20228;-78
2023/02/04 12:36:32;;;;;;;1.00;0.90;;;6.90;99.90;;;;;;4926013;28;20229;-79
2023/02/04 12:39:05;;;;;;;1.13;1.00;;;6.90;99.90;;;;;;4934617;28;20228;-78
2023/02/04 12:41:56;;;;;;;;;;;;;;;;;;;;;
2023/02/04 12:44:26;;;;;;;2.78;1.17;;;6.90;99.90;;;;;;4939671;28;20228;-78
2023/02/04 12:46:58;;;;;;;1.10;1.00;;;6.90;99.90;;;;;;4925280;28;20221;-79
2023/02/04 12:49:25;;;;;;;1.65;1.10;;;6.90;99.90;;;;;;4946139;28;20248;-78
2023/02/04 12:52:00;;;;;;;1.10;0.90;;;6.90;99.90;;;;;;4945978;28;20235;-78
2023/02/04 12:54:28;;;;;;;2.80;1.40;;;6.80;99.90;;;;;;4937030;28;20674;-79
2023/02/04 12:57:05;;;;;;;1.25;1.00;;;6.80;99.90;;;;;;4948204;28;20326;-78
2023/02/04 12:59:32;;;;;;;1.30;1.02;;;6.80;99.90;;;;;;4943706;28;20264;-77
2023/02/04 13:02:02;;;;;;;1.83;1.40;;;6.80;99.90;;;;;;4947197;28;20638;-79
2023/02/04 13:04:29;;;;;;;3.20;1.30;;;6.80;99.90;;;;;;4945410;28;20240;-78
2023/02/04 13:06:57;;;;;;;3.25;1.40;;;6.80;99.90;;;;;;4945867;28;20229;-76
2023/02/04 13:09:25;;;;;;;1.20;1.10;;;6.80;99.90;;;;;;4943429;28;20333;-78